Time;durP1;ratioP1;P1;durP2;ratioP2;P2;SDS_P1;SDS_P2;PMS_P1;PMS_P2;Temp;Humidity;BMP_temperature;BMP_pressure;BME280_temperature;BME280_humidity;BME280_pressure;Samples;Min_cycle;Max_cycle;Signal;HPM_P1;HPM_P2
2023/01/12 01:56:09;;;;;;;29.00;8.20;;;;;;;-5.30;78.71;102289.25;104317;1272;600949;-91
2023/01/12 01:58:42;;;;;;;15.40;4.50;;;;;;;-5.24;77.92;102291.00;104927;1271;61448;-87
2023/01/12 02:01:09;;;;;;;24.60;8.00;;;;;;;-5.18;77.87;102287.06;105051;1268;61086;-89
2023/01/12 02:03:36;;;;;;;19.10;6.60;;;;;;;-5.15;77.48;102290.08;104722;1267;74255;-88
2023/01/12 02:06:04;;;;;;;25.40;5.80;;;;;;;-5.13;77.29;102292.68;105037;1270;65574;-88
2023/01/12 02:08:34;;;;;;;14.70;6.10;;;;;;;-5.14;77.19;102285.68;106686;1263;821348;-87
2023/01/12 02:11:01;;;;;;;22.30;5.90;;;;;;;-5.16;76.91;102289.52;108894;1264;61081;-88
2023/01/12 02:16:24;;;;;;;24.30;4.40;;;;;;;-5.17;76.84;102283.02;107343;1264;73285;-87
2023/01/12 02:19:05;;;;;;;19.80;4.80;;;;;;;-5.15;76.58;102279.48;105481;1264;65020;-88
2023/01/12 02:21:44;;;;;;;14.50;5.90;;;;;;;-5.15;76.70;102289.38;105053;1270;74800;-88
2023/01/12 02:24:28;;;;;;;11.80;6.20;;;;;;;-5.15;76.46;102289.56;105089;1264;61357;-88
2023/01/12 02:27:14;;;;;;;15.60;7.20;;;;;;;-5.16;76.81;102288.66;105134;1270;61237;-87
2023/01/12 02:30:01;;;;;;;20.10;6.60;;;;;;;-5.15;76.64;102288.52;105060;1264;74995;-90
2023/01/12 02:32:32;;;;;;;18.10;5.80;;;;;;;-5.18;76.19;102284.49;105065;1269;65878;-87
2023/01/12 02:35:24;;;;;;;15.30;5.60;;;;;;;-5.21;76.89;102282.73;104929;1273;74675;-88
2023/01/12 02:38:04;;;;;;;12.40;4.80;;;;;;;-5.20;76.58;102275.08;105051;1264;64221;-89
2023/01/12 02:40:42;;;;;;;18.40;4.60;;;;;;;-5.22;76.80;102280.31;105115;1269;60364;-90
2023/01/12 02:43:14;;;;;;;27.10;4.80;;;;;;;-5.25;76.86;102273.55;105895;1251;75210;-89
2023/01/12 02:45:49;;;;;;;20.90;6.10;;;;;;;-5.26;76.94;102264.83;105856;1251;65650;-88
2023/01/12 02:48:22;;;;;;;23.70;5.40;;;;;;;-5.27;77.30;102265.83;105839;1257;73584;-89
2023/01/12 02:51:00;;;;;;;19.80;5.80;;;;;;;-5.27;77.03;102258.19;105820;1254;60465;-89
2023/01/12 02:53:42;;;;;;;13.20;5.20;;;;;;;-5.25;76.88;102254.14;106059;1251;61419;-88
2023/01/12 02:56:10;;;;;;;19.70;6.20;;;;;;;-5.26;77.01;102249.98;105932;1257;74559;-88
2023/01/12 02:58:41;;;;;;;17.10;5.60;;;;;;;-5.28;77.29;102254.38;106032;1254;65943;-88
2023/01/12 03:01:08;;;;;;;21.30;4.90;;;;;;;-5.28;77.04;102249.26;105995;1254;74631;-89
2023/01/12 03:03:38;;;;;;;17.50;6.00;;;;;;;-5.28;76.91;102245.14;105864;1253;62201;-89
2023/01/12 03:06:06;;;;;;;16.80;6.10;;;;;;;-5.25;77.32;102248.85;105751;1252;60937;-87
2023/01/12 03:08:35;;;;;;;20.20;5.20;;;;;;;-5.21;77.08;102247.27;105835;1255;75120;-88
2023/01/12 03:11:12;;;;;;;12.70;4.40;;;;;;;-5.17;77.38;102242.27;105858;1254;65970;-88
2023/01/12 03:13:46;;;;;;;18.80;7.70;;;;;;;-5.17;76.94;102236.80;105832;1254;73641;-86
2023/01/12 03:16:15;;;;;;;18.40;7.10;;;;;;;-5.16;77.40;102246.05;106541;1252;62530;-88
2023/01/12 03:18:53;;;;;;;15.90;6.30;;;;;;;-5.16;77.29;102242.80;105965;1257;61103;-87
2023/01/12 03:21:57;;;;;;;17.20;8.10;;;;;;;-5.15;77.08;102250.68;106101;1256;75147;-87
2023/01/12 03:24:29;;;;;;;7.90;4.60;;;;;;;-5.17;77.09;102244.13;105644;1257;66090;-88
2023/01/12 03:27:05;;;;;;;8.80;4.00;;;;;;;-5.17;77.10;102247.91;105534;1260;73754;-86
2023/01/12 03:29:45;;;;;;;13.30;4.10;;;;;;;-5.15;77.25;102243.02;106306;1257;62591;-85
2023/01/12 03:32:13;;;;;;;13.50;6.90;;;;;;;-5.12;77.26;102248.55;107788;1256;61236;-86
2023/01/12 03:34:40;;;;;;;13.90;5.20;;;;;;;-5.10;77.18;102241.30;107685;1257;74180;-87
2023/01/12 03:37:13;;;;;;;8.70;4.40;;;;;;;-5.06;77.13;102249.27;108384;1256;64888;-84
2023/01/12 03:39:46;;;;;;;10.00;4.50;;;;;;;-5.03;77.12;102241.69;107183;1260;73654;-87
2023/01/12 03:42:30;;;;;;;11.20;4.80;;;;;;;-5.02;76.92;102242.05;105825;1257;61439;-88
2023/01/12 03:45:01;;;;;;;9.80;3.20;;;;;;;-5.03;76.75;102235.89;106112;1257;60216;-87
2023/01/12 03:47:29;;;;;;;13.70;4.90;;;;;;;-5.06;77.13;102237.67;105676;1256;74703;-86
2023/01/12 03:50:19;;;;;;;12.90;4.70;;;;;;;-5.06;77.22;102235.96;106042;1262;65675;-88
2023/01/12 03:52:49;;;;;;;19.80;6.80;;;;;;;-5.05;77.01;102235.30;105344;1258;74432;-88
2023/01/12 03:55:18;;;;;;;20.30;4.60;;;;;;;-5.03;77.14;102235.69;105476;1262;63641;-88
2023/01/12 03:57:45;;;;;;;14.90;5.30;;;;;;;-5.03;76.98;102238.27;105410;1257;61216;-88
2023/01/12 04:00:12;;;;;;;11.70;4.30;;;;;;;-5.02;77.04;102237.45;105833;1254;73958;-90
2023/01/12 04:02:43;;;;;;;12.60;4.00;;;;;;;-5.00;77.01;102226.94;105805;1253;64887;-89
2023/01/12 04:05:12;;;;;;;15.10;6.90;;;;;;;-4.98;77.45;102225.44;105814;1257;73134;-90
2023/01/12 04:07:39;;;;;;;14.10;4.90;;;;;;;-4.98;77.42;102220.52;105826;1253;61998;-86
2023/01/12 04:10:06;;;;;;;9.90;4.70;;;;;;;-4.95;77.05;102218.87;105873;1253;61416;-88
2023/01/12 04:12:33;;;;;;;10.50;5.30;;;;;;;-4.95;77.03;102215.81;105931;1259;74176;-90
2023/01/12 04:15:00;;;;;;;13.90;5.60;;;;;;;-4.98;77.16;102215.38;105987;1259;65891;-90
2023/01/12 04:17:28;;;;;;;13.90;3.80;;;;;;;-5.00;77.39;102218.59;105752;1257;74947;-87
2023/01/12 04:19:55;;;;;;;8.90;4.80;;;;;;;-5.00;77.55;102213.30;105801;1254;63309;-87
2023/01/12 04:25:15;;;;;;;13.40;4.20;;;;;;;-4.95;77.32;102205.59;105790;1253;74861;-87
2023/01/12 04:27:47;;;;;;;26.90;5.20;;;;;;;-4.93;77.88;102200.88;105746;1257;64526;-88
2023/01/12 04:30:15;;;;;;;7.00;4.70;;;;;;;-4.91;77.39;102200.23;105835;1257;74365;-91
2023/01/12 04:32:44;;;;;;;15.80;5.50;;;;;;;-4.89;77.28;102204.06;106089;1257;61648;-89
2023/01/12 04:35:11;;;;;;;23.80;7.00;;;;;;;-4.89;77.20;102203.22;105730;1254;62326;-88
2023/01/12 04:37:38;;;;;;;14.00;6.00;;;;;;;-4.90;77.13;102196.54;105814;1254;73934;-90
2023/01/12 04:40:06;;;;;;;11.80;5.30;;;;;;;-4.90;77.20;102196.02;105724;1254;65598;-90
2023/01/12 04:45:21;;;;;;;13.00;4.10;;;;;;;-4.87;77.13;102190.13;105770;1253;62864;-89
2023/01/12 04:47:48;;;;;;;10.30;3.90;;;;;;;-4.87;77.12;102183.14;105942;1254;62202;-89
2023/01/12 04:50:15;;;;;;;19.80;6.20;;;;;;;-4.87;77.18;102176.66;105783;1253;74952;-89
2023/01/12 04:52:42;;;;;;;18.50;6.50;;;;;;;-4.88;77.18;102176.29;105878;1257;66119;-90
2023/01/12 04:55:12;;;;;;;16.20;5.80;;;;;;;-4.86;77.66;102186.23;105880;1257;74249;-89
2023/01/12 04:57:39;;;;;;;10.50;5.20;;;;;;;-4.83;77.54;102185.64;105960;1257;61318;-88
2023/01/12 05:00:06;;;;;;;12.40;4.60;;;;;;;-4.81;77.64;102185.86;108724;1251;61927;-87
2023/01/12 05:02:33;;;;;;;11.20;4.90;;;;;;;-4.81;77.40;102184.34;107229;1257;73957;-88
2023/01/12 05:05:01;;;;;;;14.70;5.70;;;;;;;-4.82;77.06;102182.78;106767;1251;65957;-88
2023/01/12 05:07:28;;;;;;;8.40;3.90;;;;;;;-4.81;77.28;102183.13;106219;1251;74841;-87
2023/01/12 05:12:43;;;;;;;10.50;4.60;;;;;;;-4.79;77.22;102178.94;106277;1251;62220;-87
2023/01/12 05:15:10;;;;;;;10.00;5.20;;;;;;;-4.75;77.22;102177.85;106427;1251;72039;-87
2023/01/12 05:17:37;;;;;;;24.60;6.80;;;;;;;-4.71;77.29;102183.60;108162;1251;63510;-88
2023/01/12 05:20:05;;;;;;;13.10;5.60;;;;;;;-4.67;77.09;102181.98;109658;1251;73313;-86
2023/01/12 05:22:32;;;;;;;15.90;4.40;;;;;;;-4.67;76.79;102178.44;109160;1253;61069;-87
2023/01/12 05:24:59;;;;;;;8.20;4.00;;;;;;;-4.68;76.57;102175.48;108814;1251;60415;-87
2023/01/12 05:27:26;;;;;;;10.10;4.40;;;;;;;-4.73;76.82;102180.14;107983;1252;73642;-87
2023/01/12 05:29:55;;;;;;;16.90;4.70;;;;;;;-4.77;76.59;102180.17;107165;1251;65878;-86
2023/01/12 05:32:22;;;;;;;13.90;5.10;;;;;;;-4.81;76.68;102179.89;107700;1251;74608;-85
2023/01/12 05:34:49;;;;;;;7.80;4.90;;;;;;;-4.84;76.89;102181.85;107970;1254;62618;-86
2023/01/12 05:37:16;;;;;;;8.90;3.80;;;;;;;-4.85;77.06;102180.30;108753;1251;62411;-86
2023/01/12 05:39:43;;;;;;;8.40;4.10;;;;;;;-4.87;77.09;102180.92;108877;1251;74036;-86
2023/01/12 05:44:56;;;;;;;13.90;4.80;;;;;;;-4.88;77.33;102181.39;106755;1253;73367;-84
2023/01/12 05:47:23;;;;;;;15.00;4.50;;;;;;;-4.87;77.23;102181.45;106771;1251;60262;-89
2023/01/12 05:49:50;;;;;;;11.40;5.30;;;;;;;-4.87;76.93;102179.23;106045;1251;60650;-88
2023/01/12 05:52:17;;;;;;;9.40;4.80;;;;;;;-4.87;76.87;102181.42;106006;1251;74833;-88
2023/01/12 05:54:44;;;;;;;11.70;5.80;;;;;;;-4.89;77.12;102182.57;106349;1257;65997;-87
2023/01/12 05:57:11;;;;;;;15.30;7.40;;;;;;;-4.88;77.17;102179.52;107675;1251;73717;-87
2023/01/12 05:59:38;;;;;;;14.00;5.80;;;;;;;-4.84;77.30;102187.83;106756;1257;61259;-86
2023/01/12 06:02:05;;;;;;;19.50;7.30;;;;;;;-4.81;77.04;102179.41;106367;1253;61514;-87
2023/01/12 06:04:32;;;;;;;15.20;6.70;;;;;;;-4.77;77.04;102181.73;106291;1256;75144;-88
2023/01/12 06:06:59;;;;;;;15.00;6.00;;;;;;;-4.74;76.88;102176.51;105933;1251;64960;-89
2023/01/12 06:09:26;;;;;;;13.60;5.80;;;;;;;-4.72;76.52;102175.70;105905;1257;74140;-89
2023/01/12 06:14:39;;;;;;;12.10;6.00;;;;;;;-4.69;76.78;102177.17;106045;1251;61409;-88
2023/01/12 06:17:09;;;;;;;9.30;6.20;;;;;;;-4.69;76.49;102180.21;105948;1256;74931;-88
2023/01/12 06:19:36;;;;;;;12.90;6.30;;;;;;;-4.72;76.56;102179.63;106085;1251;65050;-88
2023/01/12 06:22:03;;;;;;;8.20;4.70;;;;;;;-4.74;76.60;102174.83;106429;1253;74961;-88
2023/01/12 06:24:30;;;;;;;13.80;6.30;;;;;;;-4.76;76.62;102177.14;106528;1251;60426;-90
2023/01/12 06:26:57;;;;;;;12.10;5.80;;;;;;;-4.83;76.57;102188.02;106224;1251;62334;-90
2023/01/12 06:29:25;;;;;;;12.00;5.70;;;;;;;-4.88;76.54;102181.40;105986;1253;76041;-89
2023/01/12 06:31:52;;;;;;;14.20;6.20;;;;;;;-4.86;76.78;102187.77;106988;1255;66015;-89
2023/01/12 06:34:19;;;;;;;9.80;5.60;;;;;;;-4.84;76.86;102184.60;107075;1253;73520;-89
2023/01/12 06:36:46;;;;;;;11.50;6.40;;;;;;;-4.83;76.85;102177.13;106078;1253;60630;-89
2023/01/12 06:39:13;;;;;;;10.10;5.40;;;;;;;-4.77;77.38;102183.25;106255;1255;62399;-89
2023/01/12 06:44:25;;;;;;;11.20;5.90;;;;;;;-4.79;76.54;102172.45;106188;1254;65165;-88
2023/01/12 06:46:52;;;;;;;20.40;8.00;;;;;;;-4.86;76.66;102173.79;105965;1257;74361;-89
2023/01/12 06:49:19;;;;;;;10.60;6.00;;;;;;;-4.91;76.78;102180.11;106110;1251;60289;-89
2023/01/12 06:51:50;;;;;;;12.50;5.00;;;;;;;-4.95;76.78;102175.40;106029;1257;61119;-89
2023/01/12 06:54:17;;;;;;;5.40;3.20;;;;;;;-4.96;76.75;102168.02;106393;1254;76055;-90
2023/01/12 06:56:45;;;;;;;9.90;6.00;;;;;;;-4.91;77.29;102168.16;106360;1256;64794;-89
2023/01/12 06:59:12;;;;;;;21.70;8.90;;;;;;;-4.87;77.27;102170.52;106124;1251;72470;-88
2023/01/12 07:01:39;;;;;;;15.90;7.90;;;;;;;-4.84;77.17;102172.98;106007;1253;62146;-90
2023/01/12 20:16:19;;;;;;;10.50;6.00;;;;;;;-3.02;79.91;101959.17;103887;1282;616416;-90
2023/01/12 20:24:23;;;;;;;11.50;6.10;;;;;;;-2.80;79.09;101948.77;105355;1272;73220;-88
2023/01/12 20:26:55;;;;;;;11.50;7.00;;;;;;;-2.80;78.54;101948.10;105178;1272;63314;-88
2023/01/12 20:29:24;;;;;;;16.20;7.90;;;;;;;-2.76;78.61;101941.14;105714;1272;71597;-89
2023/01/12 20:31:54;;;;;;;21.40;9.10;;;;;;;-2.75;78.60;101941.52;105213;1273;61931;-90
2023/01/12 20:34:25;;;;;;;11.70;7.20;;;;;;;-2.72;78.66;101943.27;105455;1278;60522;-89
2023/01/12 20:36:52;;;;;;;13.40;7.80;;;;;;;-2.71;78.49;101942.08;106027;1271;73174;-89
2023/01/12 20:39:22;;;;;;;14.00;8.00;;;;;;;-2.71;78.53;101938.83;106748;1272;64713;-88
2023/01/12 20:41:50;;;;;;;12.00;7.50;;;;;;;-2.67;78.67;101938.89;106875;1266;75623;-90
2023/01/12 20:48:04;;;;;;;;;;;;;;;-2.59;78.26;101931.14;107684;1266;61085;-90
2023/01/12 20:50:32;;;;;;;16.90;8.60;;;;;;;-2.60;78.01;101930.09;106981;1266;70725;-88
2023/01/12 20:53:00;;;;;;;13.70;8.30;;;;;;;-2.65;77.98;101930.02;107353;1266;65503;-89
2023/01/12 20:55:28;;;;;;;16.40;7.00;;;;;;;-2.70;77.99;101923.77;106849;1260;73577;-88
2023/01/12 20:57:56;;;;;;;12.20;7.10;;;;;;;-2.72;78.06;101922.55;106646;1256;63193;-88
2023/01/12 21:00:25;;;;;;;10.40;6.90;;;;;;;-2.71;78.10;101921.20;106884;1256;61222;-89
2023/01/12 21:02:52;;;;;;;11.40;6.60;;;;;;;-2.68;78.00;101925.17;106552;1257;73813;-87
2023/01/12 21:05:20;;;;;;;10.20;6.70;;;;;;;-2.69;78.12;101922.27;106650;1256;65822;-89
2023/01/12 21:07:48;;;;;;;11.40;7.20;;;;;;;-2.70;78.10;101917.79;106559;1256;73674;-91
2023/01/12 21:10:20;;;;;;;14.60;8.80;;;;;;;-2.70;78.27;101916.08;106603;1259;60188;-90
2023/01/12 21:12:49;;;;;;;16.60;9.50;;;;;;;-2.68;78.34;101917.48;107223;1256;62042;-89
2023/01/12 21:15:17;;;;;;;19.60;10.60;;;;;;;-2.66;78.25;101911.69;107964;1256;73911;-90
2023/01/12 21:17:44;;;;;;;21.10;9.90;;;;;;;-2.67;78.46;101910.98;107370;1256;65200;-88
2023/01/12 21:20:13;;;;;;;12.70;8.70;;;;;;;-2.68;78.21;101902.25;107080;1256;73551;-90
2023/01/12 21:22:40;;;;;;;21.70;10.10;;;;;;;-2.67;78.31;101904.13;106983;1253;63943;-90
2023/01/12 21:25:09;;;;;;;21.90;10.00;;;;;;;-2.68;78.34;101898.14;107268;1253;61306;-89
2023/01/12 21:27:51;;;;;;;11.40;7.30;;;;;;;-2.64;78.53;101903.99;106963;1261;73833;-90
2023/01/12 21:30:19;;;;;;;23.60;8.60;;;;;;;-2.64;78.51;101898.36;107009;1255;64670;-89
2023/01/12 21:32:47;;;;;;;24.00;10.30;;;;;;;-2.63;78.60;101899.58;108061;1253;73359;-88
2023/01/12 21:35:24;;;;;;;26.90;10.60;;;;;;;-2.58;78.78;101899.12;108513;1253;60730;-89
2023/01/12 21:37:51;;;;;;;23.90;12.40;;;;;;;-2.54;78.87;101901.08;107212;1253;62393;-89
2023/01/12 21:40:19;;;;;;;19.90;10.20;;;;;;;-2.45;79.16;101900.52;107219;1253;74303;-90
2023/01/12 21:43:08;;;;;;;18.50;11.50;;;;;;;-2.37;78.66;101897.73;106998;1259;65202;-91
2023/01/12 21:45:42;;;;;;;18.20;12.00;;;;;;;-2.33;78.26;101892.98;106563;1259;74422;-90
2023/01/12 21:48:14;;;;;;;23.70;13.10;;;;;;;-2.31;78.28;101891.14;107367;1260;60574;-91
2023/01/12 21:50:41;;;;;;;23.10;12.20;;;;;;;-2.30;78.14;101894.91;108282;1253;61092;-91
2023/01/12 21:53:20;;;;;;;16.30;11.00;;;;;;;-2.30;78.22;101891.32;108842;1253;75077;-88
2023/01/12 21:55:55;;;;;;;19.10;9.80;;;;;;;-2.31;78.04;101886.85;108951;1253;66334;-89
2023/01/12 21:58:43;;;;;;;19.90;8.70;;;;;;;-2.33;78.22;101877.92;109410;1253;73914;-89
2023/01/12 22:01:14;;;;;;;19.30;9.00;;;;;;;-2.30;78.61;101876.59;109483;1253;58331;-91
2023/01/12 22:03:42;;;;;;;20.90;9.30;;;;;;;-2.23;79.05;101876.17;108959;1253;61092;-91
2023/01/12 22:06:10;;;;;;;19.00;9.80;;;;;;;-2.19;78.74;101868.35;107708;1253;73884;-90
2023/01/12 22:08:39;;;;;;;17.80;11.40;;;;;;;-2.17;78.47;101871.45;106791;1253;64447;-90
2023/01/12 22:11:10;;;;;;;22.80;11.60;;;;;;;-2.15;78.53;101869.42;106843;1259;74742;-90
2023/01/12 22:13:39;;;;;;;21.20;11.30;;;;;;;-2.13;78.48;101863.95;107302;1255;62395;-91
2023/01/12 22:16:11;;;;;;;22.30;11.80;;;;;;;-2.11;78.41;101862.44;106717;1254;61244;-91
2023/01/12 22:18:45;;;;;;;22.60;12.70;;;;;;;-2.09;78.45;101863.31;106679;1256;74979;-90
2023/01/12 22:21:12;;;;;;;21.50;11.90;;;;;;;-2.07;78.39;101863.67;107106;1254;64997;-90
2023/01/12 22:23:39;;;;;;;23.30;12.70;;;;;;;-2.08;78.39;101862.13;108648;1254;73551;-90
2023/01/12 22:26:27;;;;;;;23.40;11.30;;;;;;;-2.06;78.33;101863.19;108412;1255;60856;-86
2023/01/12 22:28:56;;;;;;;26.10;9.10;;;;;;;-2.05;78.36;101865.92;106115;1264;62468;-89
2023/01/12 22:31:24;;;;;;;25.10;10.30;;;;;;;-2.03;78.86;101864.08;105933;1263;73169;-91
2023/01/12 22:33:57;;;;;;;17.10;9.30;;;;;;;-2.02;78.63;101860.65;105823;1262;65544;-89
2023/01/12 22:36:25;;;;;;;21.60;11.10;;;;;;;-2.01;78.96;101860.85;105789;1264;73198;-90
2023/01/12 22:38:53;;;;;;;18.60;11.10;;;;;;;-1.97;78.96;101862.61;105660;1273;60534;-88
2023/01/12 22:41:21;;;;;;;18.20;12.10;;;;;;;-1.95;79.07;101866.75;106037;1264;62322;-91
2023/01/12 22:43:48;;;;;;;29.70;14.50;;;;;;;-1.92;78.87;101859.92;105694;1270;75126;-90
2023/01/12 22:46:17;;;;;;;22.70;11.60;;;;;;;-1.93;78.80;101858.38;106373;1264;64810;-91
2023/01/12 22:48:48;;;;;;;21.80;11.70;;;;;;;-1.94;78.84;101858.52;106620;1264;73619;-90
2023/01/12 22:51:17;;;;;;;22.50;10.70;;;;;;;-1.96;78.65;101861.23;105903;1267;61750;-91
2023/01/12 22:53:44;;;;;;;24.20;12.70;;;;;;;-1.97;78.93;101863.80;108280;1262;62387;-91
2023/01/12 22:57:12;;;;;;;19.80;10.40;;;;;;;-1.91;78.93;101862.17;105080;1292;599189;-91
2023/01/12 22:59:42;;;;;;;17.10;10.40;;;;;;;-1.90;79.23;101858.91;106339;1266;62145;-91
2023/01/12 23:05:17;;;;;;;18.70;10.30;;;;;;;-1.81;79.28;101854.73;106841;1258;74953;-90
2023/01/12 23:07:44;;;;;;;20.90;11.20;;;;;;;-1.80;79.45;101853.38;107152;1260;65195;-92
2023/01/12 23:10:11;;;;;;;17.70;9.70;;;;;;;-1.74;79.32;101859.27;107372;1251;781819;-91
2023/01/12 23:12:38;;;;;;;21.90;9.70;;;;;;;-1.72;79.31;101855.85;108241;1256;60203;-89
2023/01/12 23:15:06;;;;;;;15.90;9.60;;;;;;;-1.77;79.32;101851.02;108688;1259;62215;-89
2023/01/12 23:17:35;;;;;;;21.40;9.30;;;;;;;-1.82;79.32;101846.15;108545;1251;73098;-91
2023/01/12 23:20:03;;;;;;;15.20;8.70;;;;;;;-1.85;79.73;101846.46;108479;1257;64999;-92
2023/01/12 23:22:30;;;;;;;19.90;8.90;;;;;;;-1.85;79.83;101846.98;107874;1258;73867;-89
2023/01/12 23:24:57;;;;;;;17.00;8.00;;;;;;;-1.84;79.87;101846.64;106443;1257;62115;-91
2023/01/12 23:27:24;;;;;;;15.00;7.70;;;;;;;-1.82;80.19;101847.52;106271;1251;62781;-90
2023/01/12 23:29:51;;;;;;;17.50;8.70;;;;;;;-1.82;80.28;101845.81;106189;1256;75185;-90
2023/01/12 23:32:19;;;;;;;13.80;6.90;;;;;;;-1.79;80.22;101841.55;106140;1253;64783;-91
2023/01/12 23:34:46;;;;;;;16.60;7.40;;;;;;;-1.79;80.17;101840.17;106186;1257;72508;-90
2023/01/12 23:37:13;;;;;;;15.30;7.90;;;;;;;-1.77;80.45;101839.00;106266;1259;60603;-92
2023/01/12 23:39:40;;;;;;;18.40;9.10;;;;;;;-1.77;80.39;101837.64;106804;1251;62417;-91
2023/01/12 23:42:07;;;;;;;25.10;10.00;;;;;;;-1.77;80.49;101838.84;107093;1257;73840;-89
2023/01/12 23:44:35;;;;;;;18.30;10.30;;;;;;;-1.76;80.26;101833.86;107220;1259;66271;-89
2023/01/12 23:47:05;;;;;;;12.00;8.00;;;;;;;-1.76;80.21;101838.50;106985;1252;74728;-87
2023/01/12 23:49:33;;;;;;;13.20;6.80;;;;;;;-1.75;80.30;101838.34;106590;1254;63148;-90
2023/01/12 23:52:00;;;;;;;15.80;6.60;;;;;;;-1.76;80.22;101837.30;106445;1256;62551;-89
2023/01/12 23:54:27;;;;;;;12.60;6.00;;;;;;;-1.74;80.47;101835.95;106391;1256;74133;-89
2023/01/12 23:56:55;;;;;;;15.10;8.70;;;;;;;-1.71;80.93;101836.15;106654;1251;64847;-89
2023/01/12 23:59:23;;;;;;;18.00;10.20;;;;;;;-1.68;80.89;101832.08;106497;1255;74724;-89
